Time;durP1;ratioP1;P1;durP2;ratioP2;P2;SDS_P1;SDS_P2;PMS_P1;PMS_P2;Temp;Humidity;BMP_temperature;BMP_pressure;BME280_temperature;BME280_humidity;BME280_pressure;Samples;Min_cycle;Max_cycle;Signal;HPM_P1;HPM_P2
2022/04/11 00:01:14;;;;;;;3.03;1.40;;;;;;;4.92;100.00;102044.44;4977276;28;20186;-77
2022/04/11 00:03:39;;;;;;;4.47;1.90;;;;;;;4.87;100.00;102008.59;4966749;28;20185;-76
2022/04/11 00:06:05;;;;;;;3.10;1.93;;;;;;;5.08;100.00;101998.72;4967327;28;22121;-76
2022/04/11 00:08:30;;;;;;;1.97;1.50;;;;;;;5.44;100.00;102023.09;4969985;28;20197;-76
2022/04/11 00:10:56;;;;;;;3.33;1.47;;;;;;;5.86;100.00;102089.44;4974429;28;20190;-76
2022/04/11 00:13:21;;;;;;;2.40;1.17;;;;;;;5.90;100.00;102080.19;4972511;28;20652;-77
2022/04/11 00:15:46;;;;;;;2.70;1.60;;;;;;;5.38;100.00;102027.13;4979530;28;20209;-77
2022/04/11 00:18:12;;;;;;;1.80;1.40;;;;;;;4.98;100.00;101957.97;4977248;28;20735;-76
2022/04/11 00:20:37;;;;;;;2.67;1.43;;;;;;;5.20;100.00;102013.59;4974837;28;20217;-77
2022/04/11 00:23:04;;;;;;;2.10;1.20;;;;;;;5.30;100.00;101994.19;4979105;28;20182;-77
2022/04/11 00:25:30;;;;;;;2.03;1.50;;;;;;;5.54;100.00;102028.41;4978389;28;20197;-77
2022/04/11 00:27:55;;;;;;;2.03;1.30;;;;;;;5.21;100.00;102010.00;4979700;28;20487;-76
2022/04/11 00:30:21;;;;;;;4.10;2.60;;;;;;;5.10;100.00;102023.38;4982420;28;20192;-76
2022/04/11 00:32:46;;;;;;;3.43;1.80;;;;;;;5.14;100.00;102074.50;4978154;28;20272;-76
2022/04/11 00:35:13;;;;;;;2.37;1.80;;;;;;;5.10;100.00;102009.25;4977045;28;20204;-77
2022/04/11 00:37:39;;;;;;;2.57;1.63;;;;;;;4.62;100.00;101903.56;4980880;28;20178;-77
2022/04/11 00:40:06;;;;;;;2.13;1.70;;;;;;;5.50;100.00;102067.78;4976208;28;20492;-77
2022/04/11 00:42:32;;;;;;;2.33;1.50;;;;;;;5.52;100.00;102071.13;4980131;28;20591;-77
2022/04/11 00:45:01;;;;;;;2.07;1.30;;;;;;;5.02;100.00;102006.41;4978744;28;21066;-77
2022/04/11 00:47:27;;;;;;;2.43;1.73;;;;;;;4.58;100.00;101990.69;4979927;28;20306;-77
2022/04/11 00:50:01;;;;;;;2.20;1.63;;;;;;;5.09;100.00;102064.25;4976929;28;20440;-78
2022/04/11 00:52:29;;;;;;;2.97;1.80;;;;;;;4.48;100.00;101910.06;4979442;28;20442;-78
2022/04/11 00:54:55;;;;;;;2.30;1.60;;;;;;;4.99;100.00;102008.34;4975484;28;20432;-77
2022/04/11 00:57:23;;;;;;;5.00;1.60;;;;;;;5.29;100.00;102059.84;4991737;28;21940;-78
2022/04/11 00:59:48;;;;;;;2.90;2.03;;;;;;;4.99;100.00;101991.56;4976996;28;20556;-77
2022/04/11 01:02:14;;;;;;;3.17;2.10;;;;;;;5.08;100.00;102017.34;4982522;28;20443;-77
2022/04/11 01:04:41;;;;;;;2.23;1.80;;;;;;;5.39;100.00;102050.09;4985394;28;20210;-78
2022/04/11 01:07:07;;;;;;;2.13;1.40;;;;;;;5.41;100.00;102053.47;4979744;28;20198;-78
2022/04/11 01:09:34;;;;;;;3.20;1.47;;;;;;;5.12;100.00;102039.19;4979964;28;20440;-77
2022/04/11 01:12:01;;;;;;;2.30;1.30;;;;;;;4.82;100.00;101984.22;4981746;28;20448;-78
2022/04/11 01:14:26;;;;;;;2.23;1.70;;;;;;;5.03;100.00;102027.53;4984631;28;20448;-78
2022/04/11 01:16:52;;;;;;;2.90;1.90;;;;;;;4.89;100.00;101999.50;4982157;28;20476;-78
2022/04/11 01:19:19;;;;;;;2.27;1.47;;;;;;;4.85;100.00;102016.69;4972584;28;20241;-78
2022/04/11 01:21:47;;;;;;;3.90;1.57;;;;;;;4.70;100.00;101992.28;4982856;28;20970;-78
2022/04/11 01:24:15;;;;;;;2.53;2.33;;;;;;;4.99;100.00;102055.38;4979899;28;20518;-78
2022/04/11 01:26:42;;;;;;;2.43;1.90;;;;;;;4.84;100.00;102030.13;4980514;28;20577;-78
2022/04/11 01:29:08;;;;;;;2.70;1.47;;;;;;;4.84;100.00;102000.88;4978978;28;20884;-78
2022/04/11 01:31:34;;;;;;;2.20;1.63;;;;;;;4.79;100.00;102016.38;4978390;28;20483;-78
2022/04/11 01:34:00;;;;;;;4.43;1.93;;;;;;;5.21;100.00;102054.38;4977802;28;20690;-78
2022/04/11 01:36:25;;;;;;;2.53;1.70;;;;;;;4.90;100.00;102030.44;4981074;28;20504;-78
2022/04/11 01:38:51;;;;;;;1.53;1.20;;;;;;;4.50;100.00;101979.84;4980318;28;20182;-78
2022/04/11 01:41:16;;;;;;;2.60;1.50;;;;;;;4.60;100.00;102012.66;4976003;28;20208;-78
2022/04/11 01:43:42;;;;;;;2.00;1.57;;;;;;;4.96;100.00;102045.00;4979719;28;20194;-77
2022/04/11 01:46:07;;;;;;;1.70;1.50;;;;;;;4.81;100.00;102025.06;4975942;28;20210;-78
2022/04/11 01:48:32;;;;;;;2.43;1.70;;;;;;;4.64;100.00;102040.63;4978319;28;21321;-77
2022/04/11 01:50:58;;;;;;;2.20;1.50;;;;;;;4.48;100.00;102000.38;4979140;28;20297;-77
2022/04/11 01:53:23;;;;;;;2.23;1.70;;;;;;;3.72;100.00;101872.31;4974985;28;20228;-77
2022/04/11 01:55:48;;;;;;;2.37;1.70;;;;;;;4.74;100.00;102046.88;4976723;28;20257;-77
2022/04/11 01:58:15;;;;;;;3.40;1.70;;;;;;;4.66;100.00;102046.69;4978311;28;20553;-77
2022/04/11 02:00:41;;;;;;;2.70;1.57;;;;;;;4.69;100.00;102045.56;4977634;28;20208;-78
2022/04/11 02:03:08;;;;;;;2.50;1.60;;;;;;;4.37;100.00;101984.50;4978614;28;20473;-78
2022/04/11 02:05:34;;;;;;;3.07;1.87;;;;;;;4.25;100.00;101975.78;4977802;28;20210;-76
2022/04/11 02:08:00;;;;;;;4.23;2.07;;;;;;;4.78;100.00;102055.41;4979132;28;20441;-77
2022/04/11 02:10:26;;;;;;;4.47;1.80;;;;;;;4.24;100.00;101990.03;4979478;28;20449;-76
2022/04/11 02:12:52;;;;;;;3.47;2.27;;;;;;;4.33;100.00;101994.56;4977580;28;20441;-78
2022/04/11 02:15:18;;;;;;;2.33;2.13;;;;;;;4.65;100.00;102042.31;4981114;28;20444;-77
2022/04/11 02:17:47;;;;;;;4.63;2.10;;;;;;;4.32;100.00;102002.69;4976967;28;20449;-77
2022/04/11 02:20:13;;;;;;;2.70;2.10;;;;;;;4.61;100.00;102018.81;4979277;28;20201;-77
2022/04/11 02:22:48;;;;;;;2.43;1.50;;;;;;;4.70;100.00;102045.44;4977013;28;20436;-77
2022/04/11 02:25:15;;;;;;;3.80;1.83;;;;;;;4.67;100.00;102036.88;4977967;28;20432;-76
2022/04/11 02:27:41;;;;;;;4.57;1.73;;;;;;;4.41;100.00;102031.97;4973319;28;20463;-77
2022/04/11 02:30:07;;;;;;;2.93;1.77;;;;;;;4.33;100.00;102015.81;4976173;28;20447;-77
2022/04/11 02:32:33;;;;;;;1.67;1.40;;;;;;;4.15;100.00;101991.66;4980291;28;20488;-77
2022/04/11 02:34:58;;;;;;;2.77;1.83;;;;;;;4.39;100.00;102043.69;4977139;28;20978;-77
2022/04/11 02:37:24;;;;;;;2.33;1.53;;;;;;;4.32;100.00;101998.22;4976573;28;20210;-76
2022/04/11 02:39:49;;;;;;;2.97;1.40;;;;;;;4.19;100.00;101969.16;4979223;28;20186;-76
2022/04/11 02:42:24;;;;;;;1.83;1.30;;;;;;;4.58;100.00;102049.13;4977087;28;20252;-76
2022/04/11 02:44:50;;;;;;;1.90;1.70;;;;;;;4.30;100.00;102014.25;4973708;28;20226;-76
2022/04/11 02:47:16;;;;;;;1.83;1.63;;;;;;;3.94;100.00;101972.22;4978811;28;20467;-76
2022/04/11 02:49:42;;;;;;;1.63;1.53;;;;;;;4.28;100.00;102040.13;4977247;28;20445;-77
2022/04/11 02:52:08;;;;;;;2.33;1.83;;;;;;;4.34;100.00;102054.72;4973857;28;20181;-77
2022/04/11 02:54:35;;;;;;;1.53;1.43;;;;;;;3.95;100.00;102000.44;4974106;28;20441;-77
2022/04/11 02:57:00;;;;;;;2.90;1.90;;;;;;;3.94;100.00;101982.84;4976086;28;20219;-77
2022/04/11 02:59:25;;;;;;;2.23;1.57;;;;;;;4.21;100.00;102038.09;4974250;28;20429;-76
2022/04/11 03:01:51;;;;;;;2.10;1.30;;;;;;;3.96;100.00;102010.06;4977190;28;20280;-77
2022/04/11 03:04:16;;;;;;;1.50;1.40;;;;;;;3.90;100.00;102000.81;4976658;28;20185;-76
2022/04/11 03:06:42;;;;;;;2.97;1.83;;;;;;;4.01;100.00;101999.94;4980037;28;20201;-77
2022/04/11 03:09:10;;;;;;;1.90;1.57;;;;;;;4.22;100.00;102059.22;4977509;28;20197;-76
2022/04/11 03:11:36;;;;;;;1.60;1.47;;;;;;;3.78;100.00;101954.88;4977110;28;20757;-76
2022/04/11 03:14:01;;;;;;;2.90;1.90;;;;;;;3.81;100.00;101975.03;4977830;28;20455;-77
2022/04/11 03:16:27;;;;;;;5.50;1.87;;;;;;;4.22;100.00;102047.75;4977451;28;20328;-76
2022/04/11 03:18:52;;;;;;;2.90;2.00;;;;;;;4.18;100.00;102031.22;4978231;28;20186;-77
2022/04/11 03:21:18;;;;;;;2.27;1.60;;;;;;;3.39;100.00;101933.34;4974590;28;20332;-77
2022/04/11 03:23:43;;;;;;;2.07;1.87;;;;;;;3.92;100.00;102004.19;4975957;28;20273;-77
2022/04/11 03:26:08;;;;;;;3.73;1.53;;;;;;;3.70;100.00;101964.44;4975442;28;20218;-77
2022/04/11 03:28:34;;;;;;;4.50;1.57;;;;;;;3.81;100.00;101997.09;4979118;28;20263;-77
2022/04/11 03:31:00;;;;;;;5.40;2.03;;;;;;;4.00;100.00;102012.38;4977811;28;20216;-76
2022/04/11 03:33:25;;;;;;;2.33;1.70;;;;;;;4.07;100.00;102040.06;4969758;28;20181;-77
2022/04/11 03:35:51;;;;;;;3.00;1.90;;;;;;;3.97;100.00;102019.75;4976425;28;20284;-77
2022/04/11 03:38:16;;;;;;;3.50;2.10;;;;;;;3.19;100.00;101907.59;4973683;28;20541;-76
2022/04/11 03:40:42;;;;;;;2.23;1.70;;;;;;;3.69;100.00;101970.75;4977094;28;20190;-77
2022/04/11 03:43:07;;;;;;;3.23;1.97;;;;;;;3.46;100.00;101938.13;4979546;28;20185;-77
2022/04/11 03:45:32;;;;;;;2.27;1.57;;;;;;;3.76;100.00;101967.47;4978270;28;20202;-76
2022/04/11 03:47:58;;;;;;;2.07;1.53;;;;;;;4.05;100.00;102025.25;4976172;28;20272;-77
2022/04/11 03:50:23;;;;;;;1.97;1.80;;;;;;;4.08;100.00;102044.44;4974423;28;25088;-77
2022/04/11 03:52:49;;;;;;;5.07;1.70;;;;;;;3.51;100.00;101952.72;4976892;28;20186;-77
2022/04/11 03:55:15;;;;;;;2.07;1.43;;;;;;;4.02;100.00;102030.81;4975175;28;20205;-77
2022/04/11 03:57:40;;;;;;;4.80;2.47;;;;;;;3.74;100.00;101993.28;4975192;28;20871;-77
2022/04/11 04:00:06;;;;;;;3.27;1.80;;;;;;;4.34;100.00;102043.22;4974171;28;20185;-77
2022/04/11 04:02:31;;;;;;;2.87;1.77;;;;;;;4.11;100.00;102053.09;4960229;28;20276;-77
2022/04/11 04:04:57;;;;;;;3.00;2.07;;;;;;;3.82;100.00;101996.16;4973504;28;21557;-77
2022/04/11 04:07:22;;;;;;;3.00;1.90;;;;;;;3.47;100.00;101958.38;4968626;28;20205;-76
2022/04/11 04:09:48;;;;;;;2.10;1.50;;;;;;;3.65;100.00;101988.72;4978967;28;20190;-76
2022/04/11 04:12:18;;;;;;;3.90;2.07;;;;;;;3.85;100.00;102029.56;4982173;28;20177;-76
2022/04/11 04:14:43;;;;;;;1.43;1.30;;;;;;;2.82;100.00;101840.81;4980802;28;20247;-76
2022/04/11 04:17:09;;;;;;;2.50;1.67;;;;;;;3.94;100.00;102022.66;4994160;22;20508;-77
2022/04/11 04:19:34;;;;;;;2.70;1.40;;;;;;;4.16;100.00;102040.28;4977256;28;20201;-78
2022/04/11 04:21:59;;;;;;;1.60;1.50;;;;;;;3.73;100.00;101991.59;4983918;28;20240;-79
2022/04/11 04:24:25;;;;;;;2.50;1.60;;;;;;;4.01;100.00;102029.97;4996262;28;20193;-78
2022/04/11 04:26:50;;;;;;;3.33;2.07;;;;;;;3.94;100.00;101999.59;4979792;28;20221;-78
2022/04/11 04:29:18;;;;;;;1.70;1.60;;;;;;;4.02;100.00;102018.41;4981635;28;20682;-78
2022/04/11 04:31:44;;;;;;;2.50;1.20;;;;;;;4.06;100.00;102029.59;4994671;28;20563;-78
2022/04/11 04:34:09;;;;;;;3.47;2.10;;;;;;;4.08;100.00;102023.19;4982551;28;20436;-78
2022/04/11 04:36:35;;;;;;;2.50;1.47;;;;;;;4.21;100.00;102038.94;4986002;28;20222;-78
2022/04/11 04:39:03;;;;;;;1.97;1.50;;;;;;;3.49;100.00;101908.69;4987906;28;20181;-79
2022/04/11 04:41:29;;;;;;;2.23;1.80;;;;;;;3.77;100.00;101950.56;4986092;28;20557;-79
2022/04/11 04:43:54;;;;;;;3.97;2.00;;;;;;;4.06;100.00;101971.19;4987519;28;20445;-79
2022/04/11 04:46:19;;;;;;;2.00;1.80;;;;;;;4.29;100.00;102019.72;4986899;28;20226;-78
2022/04/11 04:48:45;;;;;;;2.40;1.60;;;;;;;4.42;100.00;102048.72;4987744;28;25170;-79
2022/04/11 04:51:10;;;;;;;2.40;1.73;;;;;;;3.66;100.00;101916.09;4987579;28;20247;-79
2022/04/11 04:53:36;;;;;;;2.57;1.77;;;;;;;3.67;100.00;101914.28;4982993;28;20669;-80
2022/04/11 04:56:02;;;;;;;2.63;1.50;;;;;;;4.58;100.00;102042.97;4985483;28;20720;-80
2022/04/11 04:58:27;;;;;;;4.23;1.90;;;;;;;4.50;100.00;102039.16;4981019;28;20926;-79
2022/04/11 05:00:52;;;;;;;3.20;2.00;;;;;;;4.17;100.00;102002.16;4984365;28;20644;-80
2022/04/11 05:03:18;;;;;;;2.23;1.90;;;;;;;3.77;100.00;101929.34;4985507;28;20193;-79
2022/04/11 05:05:43;;;;;;;21.63;3.67;;;;;;;3.60;100.00;101890.09;4987323;28;20264;-79
2022/04/11 05:08:08;;;;;;;5.03;2.00;;;;;;;4.63;100.00;102051.38;4981940;28;20676;-80
2022/04/11 05:10:34;;;;;;;2.27;2.07;;;;;;;4.60;100.00;102017.97;4976036;28;20193;-80
2022/04/11 05:12:59;;;;;;;3.57;1.80;;;;;;;4.70;100.00;102040.13;4984140;28;20190;-80
2022/04/11 05:15:31;;;;;;;3.77;1.90;;;;;;;4.29;100.00;101970.09;4982624;28;20279;-81
2022/04/11 05:17:56;;;;;;;2.97;2.13;;;;;;;4.54;100.00;101975.94;4984606;28;20209;-81
2022/04/11 05:20:21;;;;;;;1.90;1.60;;;;;;;4.21;100.00;101943.34;4983615;28;20440;-84
2022/04/11 05:22:47;;;;;;;3.23;1.90;;;;;;;4.28;100.00;101955.13;4983824;28;20216;-83
2022/04/11 05:25:12;;;;;;;3.40;2.20;;;;;;;3.82;100.00;101924.50;4984952;28;20201;-83
2022/04/11 05:27:37;;;;;;;2.10;1.83;;;;;;;4.62;100.00;102008.03;4980934;28;20695;-82
2022/04/11 05:30:05;;;;;;;1.93;1.83;;;;;;;5.00;100.00;102043.75;4986704;28;20273;-82
2022/04/11 05:32:32;;;;;;;2.40;1.90;;;;;;;4.86;100.00;102041.44;4983096;28;20411;-81
2022/04/11 05:34:58;;;;;;;3.77;2.70;;;;;;;4.56;100.00;101975.84;4984125;28;20487;-81
2022/04/11 05:37:23;;;;;;;3.90;3.07;;;;;;;4.94;100.00;102034.50;4986961;28;20500;-81
2022/04/11 05:39:49;;;;;;;3.67;3.10;;;;;;;4.59;100.00;101979.06;4984577;28;20201;-82
2022/04/11 05:42:14;;;;;;;6.20;3.90;;;;;;;5.02;100.00;102044.47;4987315;28;20185;-82
2022/04/11 05:44:39;;;;;;;7.53;4.77;;;;;;;4.70;100.00;101970.16;4983866;28;20182;-81
2022/04/11 05:47:05;;;;;;;9.40;3.23;;;;;;;4.91;100.00;101967.47;4982091;28;20619;-80
2022/04/11 05:49:30;;;;;;;8.20;2.73;;;;;;;4.72;100.00;101946.97;4978723;28;20213;-82
2022/04/11 05:51:56;;;;;;;3.27;2.80;;;;;;;5.33;100.00;102053.28;4981903;28;20188;-83
2022/04/11 05:54:21;;;;;;;2.97;2.70;;;;;;;5.35;100.00;102053.13;4978979;28;20193;-82
2022/04/11 05:56:46;;;;;;;8.90;2.90;;;;;;;5.18;100.00;102028.03;4998325;28;20241;-78
2022/04/11 05:59:12;;;;;;;19.23;4.30;;;;;;;5.30;100.00;102015.47;4981450;28;20853;-75
2022/04/11 06:01:40;;;;;;;75.73;10.27;;;;;;;5.21;100.00;101990.53;4984092;28;20193;-80
2022/04/11 06:04:05;;;;;;;6.17;3.20;;;;;;;5.00;100.00;102009.19;4980135;28;20214;-79
2022/04/11 06:06:31;;;;;;;10.20;2.40;;;;;;;5.24;100.00;102066.56;4982408;28;20453;-80
2022/04/11 06:08:56;;;;;;;34.97;6.20;;;;;;;5.06;100.00;102043.22;4982238;28;20448;-79
2022/04/11 06:11:22;;;;;;;7.57;2.53;;;;;;;5.33;100.00;102060.44;4982602;28;20237;-79
2022/04/11 06:13:47;;;;;;;4.97;1.87;;;;;;;5.51;100.00;102044.66;4984455;28;20221;-77
2022/04/11 06:16:13;;;;;;;3.33;2.00;;;;;;;5.49;100.00;102063.41;4983961;28;20672;-79
2022/04/11 06:18:39;;;;;;;4.40;2.60;;;;;;;5.13;100.00;102006.31;4983639;28;20247;-78
2022/04/11 06:21:05;;;;;;;3.77;2.20;;;;;;;5.55;100.00;102065.53;4981478;28;20465;-77
2022/04/11 06:23:31;;;;;;;2.30;2.10;;;;;;;5.68;100.00;102070.63;4980987;28;20222;-77
2022/04/11 06:25:57;;;;;;;4.30;1.77;;;;;;;5.48;100.00;102083.03;4983878;28;20224;-78
2022/04/11 06:28:22;;;;;;;2.93;2.07;;;;;;;5.40;100.00;102045.59;4980167;28;20445;-79
2022/04/11 06:30:48;;;;;;;3.37;2.87;;;;;;;5.09;100.00;102003.09;4983528;28;20190;-79
2022/04/11 06:33:13;;;;;;;2.27;2.03;;;;;;;4.79;100.00;101934.81;4981461;28;20190;-78
2022/04/11 06:35:39;;;;;;;4.27;1.97;;;;;;;5.16;100.00;101961.66;4979522;28;20329;-78
2022/04/11 06:38:04;;;;;;;3.60;2.40;;;;;;;5.05;100.00;101961.78;4983928;28;20185;-78
2022/04/11 06:40:30;;;;;;;3.33;2.40;;;;;;;5.06;100.00;101942.16;4980413;28;20185;-77
2022/04/11 06:42:58;;;;;;;3.03;2.17;;;;;;;5.54;100.00;102023.94;4981500;28;20672;-77
2022/04/11 06:45:23;;;;;;;3.10;2.40;;;;;;;5.91;100.00;102073.06;4981033;28;20340;-79
2022/04/11 06:47:49;;;;;;;2.67;2.40;;;;;;;5.19;100.00;101961.41;4984685;28;20444;-79
2022/04/11 06:50:15;;;;;;;3.40;2.30;;;;;;;5.04;100.00;101949.47;4980728;28;20190;-79
2022/04/11 06:52:41;;;;;;;2.57;2.30;;;;;;;5.02;100.00;101927.47;4981841;28;20189;-79
2022/04/11 06:55:07;;;;;;;3.00;2.40;;;;;;;5.61;100.00;102035.72;4976787;28;21353;-79
2022/04/11 06:57:32;;;;;;;3.87;2.27;;;;;;;5.70;100.00;102046.50;4974939;28;21482;-80
2022/04/11 06:59:58;;;;;;;5.57;2.87;;;;;;;5.70;100.00;102059.81;4980262;28;20436;-80
2022/04/11 07:02:23;;;;;;;3.17;1.97;;;;;;;5.66;100.00;102041.47;4981690;28;20194;-80
2022/04/11 07:04:48;;;;;;;2.20;2.00;;;;;;;5.96;100.00;102069.03;4978144;28;20552;-80
2022/04/11 07:07:14;;;;;;;3.50;1.73;;;;;;;6.03;100.00;102063.97;4979999;28;20209;-81
2022/04/11 07:09:39;;;;;;;2.47;1.97;;;;;;;5.74;100.00;102024.81;4980509;28;20182;-73
2022/04/11 07:12:05;;;;;;;3.67;1.80;;;;;;;6.15;100.00;102060.19;4978200;28;20228;-81
2022/04/11 07:14:31;;;;;;;3.20;1.80;;;;;;;6.16;100.00;102050.38;4979990;28;20186;-81
2022/04/11 07:16:56;;;;;;;3.53;2.30;;;;;;;5.91;100.00;101995.81;4977544;28;20488;-81
2022/04/11 07:19:22;;;;;;;3.00;1.87;;;;;;;6.10;100.00;102047.31;4981695;28;20197;-81
2022/04/11 07:21:48;;;;;;;4.97;2.50;;;;;;;6.10;100.00;102035.78;4982432;28;20209;-81
2022/04/11 07:24:14;;;;;;;3.30;1.80;;;;;;;6.18;100.00;102059.06;4984370;28;20199;-79
2022/04/11 07:26:42;;;;;;;1.93;1.80;;;;;;;6.29;100.00;102057.09;4983563;28;20252;-80
2022/04/11 07:29:08;;;;;;;2.80;1.80;;;;;;;6.47;100.00;102065.22;4978864;28;20451;-81
2022/04/11 07:31:34;;;;;;;4.30;1.90;;;;;;;6.46;100.00;102036.91;4984192;28;20516;-79
2022/04/11 07:34:01;;;;;;;3.43;1.73;;;;;;;5.36;100.00;101943.94;4981143;28;20532;-78
2022/04/11 07:36:28;;;;;;;7.13;2.37;;;;;;;6.35;100.00;102066.38;4981099;28;20278;-74
2022/04/11 07:38:53;;;;;;;2.87;1.50;;;;;;;5.39;100.00;101903.75;4975324;28;20445;-75
2022/04/11 07:41:19;;;;;;;2.27;1.20;;;;;;;6.22;100.00;102015.16;4979618;28;20810;-80
2022/04/11 07:43:44;;;;;;;4.00;1.67;;;;;;;6.19;100.00;102007.47;4978172;28;20186;-76
2022/04/11 07:46:11;;;;;;;3.17;1.23;;;;;;;6.32;100.00;102013.34;4979477;28;20669;-75
2022/04/11 07:48:36;;;;;;;4.43;1.97;;;;;;;6.18;100.00;101969.34;4978724;28;20445;-79
2022/04/11 07:51:01;;;;;;;1.27;1.13;;;;;;;6.84;100.00;102066.31;4979844;28;20210;-74
2022/04/11 07:53:27;;;;;;;2.30;1.20;;;;;;;6.91;100.00;102067.38;4978589;28;20693;-80
2022/04/11 07:55:53;;;;;;;4.93;1.60;;;;;;;5.91;100.00;101940.75;4973361;28;20226;-77
2022/04/11 07:58:19;;;;;;;3.70;1.30;;;;;;;6.00;100.00;101931.94;4974454;28;20447;-79
2022/04/11 08:00:45;;;;;;;4.17;1.33;;;;;;;6.61;100.00;102026.63;4982249;28;20665;-79
2022/04/11 08:03:10;;;;;;;2.20;1.40;;;;;;;6.03;100.00;101902.34;4974720;28;20599;-76
2022/04/11 08:05:36;;;;;;;3.70;1.27;;;;;;;6.67;100.00;101958.56;4978712;28;20576;-79
2022/04/11 08:08:01;;;;;;;6.40;1.67;;;;;;;6.89;100.00;101976.03;4975354;28;20264;-76
2022/04/11 08:10:26;;;;;;;2.03;1.50;;;;;;;7.12;100.00;102011.19;4994415;28;20185;-79
2022/04/11 08:13:00;;;;;;;3.63;1.60;;;;;;;7.54;100.00;102056.88;4977369;28;20181;-82
2022/04/11 08:15:27;;;;;;;4.07;1.47;;;;;;;7.09;100.00;101993.63;4977673;28;20328;-80
2022/04/11 08:17:56;;;;;;;2.07;1.17;;;;;;;7.29;100.00;102028.22;4974376;28;20856;-80
2022/04/11 08:20:23;;;;;;;2.23;1.10;;;;;;;7.02;100.00;101948.00;4978176;28;20434;-79
2022/04/11 08:22:49;;;;;;;5.23;2.00;;;;;;;7.27;100.00;101993.69;4978204;28;20434;-77
2022/04/11 08:25:14;;;;;;;3.07;1.07;;;;;;;7.55;100.00;102033.69;4974576;28;20436;-80
2022/04/11 08:27:41;;;;;;;3.33;0.90;;;;;;;7.81;100.00;102049.81;4978742;28;20291;-79
2022/04/11 08:30:07;;;;;;;2.33;1.20;;;;;;;7.59;100.00;102029.75;4977835;28;20196;-80
2022/04/11 08:32:38;;;;;;;1.80;1.10;;;;;;;7.57;100.00;102037.88;4991638;28;20453;-78
2022/04/11 08:35:03;;;;;;;2.00;0.80;;;;;;;6.73;100.00;101884.16;4977152;28;20472;-79
2022/04/11 08:37:29;;;;;;;4.00;1.27;;;;;;;7.69;100.00;102007.34;4977005;28;20512;-79
2022/04/11 08:39:54;;;;;;;8.70;1.30;;;;;;;7.81;100.00;102049.81;4979571;28;20181;-79
2022/04/11 08:42:23;;;;;;;25.17;2.40;;;;;;;7.66;100.00;102026.31;4980933;28;20249;-82
2022/04/11 08:44:55;;;;;;;42.13;3.43;;;;;;;7.97;100.00;102043.81;4978049;28;20198;-76
2022/04/11 08:47:21;;;;;;;5.80;1.30;;;;;;;8.01;100.00;102023.81;4976766;28;20452;-76
2022/04/11 08:49:46;;;;;;;1.93;1.27;;;;;;;7.77;100.00;102041.28;4979237;28;20954;-76
2022/04/11 08:52:12;;;;;;;2.33;1.13;;;;;;;8.02;100.00;102039.69;4978163;28;20189;-77
2022/04/11 08:54:39;;;;;;;2.00;0.87;;;;;;;8.02;100.00;101996.94;4977852;28;20196;-77
2022/04/11 08:57:05;;;;;;;1.10;0.90;;;;;;;8.33;100.00;102033.94;4976379;28;20479;-76
2022/04/11 08:59:33;;;;;;;38.23;4.10;;;;;;;8.26;100.00;102012.34;4978555;28;20437;-80
2022/04/11 09:01:58;;;;;;;9.87;1.63;;;;;;;8.28;100.00;102014.88;4995200;28;20425;-78
2022/04/11 09:04:24;;;;;;;11.53;2.23;;;;;;;8.29;100.00;102003.19;4981687;28;20459;-80
2022/04/11 09:06:59;;;;;;;1.30;0.70;;;;;;;8.59;100.00;102032.19;4979934;28;20209;-81
2022/04/11 09:09:38;;;;;;;1.43;0.97;;;;;;;8.62;100.00;102019.47;4980870;28;20597;-80
2022/04/11 09:12:04;;;;;;;2.90;1.00;;;;;;;8.70;100.00;102035.59;4978050;28;20441;-80
2022/04/11 09:14:29;;;;;;;0.90;0.73;;;;;;;8.79;100.00;102034.63;4981412;28;20464;-81
2022/04/11 09:16:56;;;;;;;1.63;0.90;;;;;;;8.63;100.00;102035.38;4980970;28;20226;-83
2022/04/11 09:19:23;;;;;;;3.07;1.10;;;;;;;8.75;100.00;102038.63;4980971;28;20252;-81
2022/04/11 09:21:50;;;;;;;2.72;1.00;;;;;;;8.49;100.00;101990.50;4982319;28;20440;-81
2022/04/11 09:24:19;;;;;;;2.03;0.93;;;;;;;8.48;100.00;101952.22;4982959;28;20186;-81
2022/04/11 09:26:46;;;;;;;1.80;0.90;;;;;;;8.87;100.00;102015.13;4984136;28;20454;-80
2022/04/11 09:29:12;;;;;;;1.20;0.77;;;;;;;8.77;100.00;102000.03;5003079;28;20444;-80
2022/04/11 09:31:38;;;;;;;0.63;0.60;;;;;;;9.07;100.00;102021.94;4985227;28;20441;-81
2022/04/11 09:34:19;;;;;;;0.80;0.60;;;;;;;9.01;100.00;102026.06;4978954;28;25840;-78
2022/04/11 09:36:51;;;;;;;2.50;1.20;;;;;;;8.96;100.00;102014.16;4979074;28;20496;-81
2022/04/11 09:39:25;;;;;;;2.90;0.90;;;;;;;8.94;100.00;101984.91;4983957;28;20444;-81
2022/04/11 09:41:51;;;;;;;2.00;0.87;;;;;;;9.15;100.00;101997.88;4983211;28;20445;-80
2022/04/11 09:44:34;;;;;;;1.23;0.80;;;;;;;9.15;100.00;101994.38;4981456;28;20535;-80
2022/04/11 09:47:00;;;;;;;2.30;0.80;;;;;;;9.24;100.00;102012.13;4982259;28;20476;-82
2022/04/11 09:49:26;;;;;;;1.77;0.80;;;;;;;8.75;100.00;101996.66;5001663;28;20440;-80
2022/04/11 09:52:13;;;;;;;3.40;0.83;;;;;;;8.78;100.00;102001.69;4981631;28;20786;-81
2022/04/11 09:54:44;;;;;;;3.27;1.00;;;;;;;9.06;100.00;102009.56;4978056;28;21569;-80
2022/04/11 09:57:15;;;;;;;2.50;1.00;;;;;;;9.15;100.00;102007.75;4978355;28;20507;-78
2022/04/11 09:59:43;;;;;;;1.40;0.70;;;;;;;9.32;100.00;102009.50;4996515;28;20451;-79
2022/04/11 10:02:10;;;;;;;2.60;0.87;;;;;;;9.41;100.00;102011.19;4996981;28;20452;-79
2022/04/11 10:04:37;;;;;;;2.93;1.10;;;;;;;9.25;100.00;101969.13;4999240;28;20444;-80
2022/04/11 10:07:03;;;;;;;1.40;0.70;;;;;;;9.39;100.00;102009.66;4982516;28;20562;-80
2022/04/11 10:09:30;;;;;;;1.67;0.80;;;;;;;9.15;100.00;101944.34;4985500;28;20487;-82
2022/04/11 10:11:56;;;;;;;1.87;0.80;;;;;;;8.87;100.00;101975.00;5002871;28;20421;-83
2022/04/11 10:14:23;;;;;;;1.90;0.90;;;;;;;9.48;100.00;102000.66;4987152;28;20444;-81
2022/04/11 10:17:03;;;;;;;2.03;0.80;;;;;;;9.12;100.00;101998.19;5000342;22;20237;-75
2022/04/11 10:19:33;;;;;;;2.10;0.80;;;;;;;8.93;100.00;101940.41;5002981;28;20440;-74
2022/04/11 10:22:21;;;;;;;1.90;0.90;;;;;;;9.18;100.00;101968.09;4988044;28;20432;-75
2022/04/11 10:24:56;;;;;;;4.17;0.77;;;;;;;9.30;100.00;101986.56;4989120;28;20443;-76
2022/04/11 10:27:25;;;;;;;4.53;1.10;;;;;;;9.10;100.00;101988.66;4987216;28;20455;-74
2022/04/11 10:29:53;;;;;;;2.40;0.70;;;;;;;9.18;100.00;101986.84;4989301;28;20433;-74
2022/04/11 10:32:21;;;;;;;3.03;0.80;;;;;;;9.29;100.00;101985.72;4986531;28;20435;-75
2022/04/11 10:35:09;;;;;;;1.10;0.73;;;;;;;9.60;100.00;101988.63;4987398;28;20436;-75
2022/04/11 10:37:40;;;;;;;1.13;0.60;;;;;;;9.83;100.00;101971.91;4988310;28;21052;-75
2022/04/11 10:40:19;;;;;;;0.70;0.60;;;;;;;9.78;100.00;101967.06;4988217;28;20440;-75
2022/04/11 10:43:08;;;;;;;1.23;0.60;;;;;;;9.67;100.00;101968.22;4998627;28;20468;-75
2022/04/11 10:45:40;;;;;;;2.80;0.90;;;;;;;9.81;100.00;101971.28;4985589;28;20436;-75
2022/04/11 10:48:06;;;;;;;2.77;0.70;;;;;;;9.96;100.00;101940.13;4983430;28;20927;-76
2022/04/11 10:50:34;;;;;;;3.43;0.70;;;;;;;10.26;100.00;101968.06;4996967;28;20464;-76
2022/04/11 10:53:09;;;;;;;2.60;1.00;;;;;;;10.10;100.00;101966.25;4981444;28;20476;-76
2022/04/11 10:55:35;;;;;;;1.43;0.80;;;;;;;10.01;100.00;101950.31;4996615;28;20452;-76
2022/04/11 10:58:01;;;;;;;1.93;0.90;;;;;;;9.43;100.00;101902.06;4985699;28;20472;-76
2022/04/11 11:00:29;;;;;;;1.97;0.87;;;;;;;10.05;100.00;101957.03;4985615;28;20471;-76
2022/04/11 11:02:59;;;;;;;1.67;0.73;;;;;;;10.30;100.00;101957.88;4983363;28;20527;-76
2022/04/11 11:05:40;;;;;;;1.13;0.83;;;;;;;10.46;100.00;101960.53;4982073;28;20546;-76
2022/04/11 11:08:05;;;;;;;3.30;1.30;;;;;;;10.42;100.00;101958.38;4983732;28;20455;-77
2022/04/11 11:10:54;;;;;;;1.87;0.90;;;;;;;10.06;100.00;101958.69;4986907;28;20449;-77
2022/04/11 11:13:31;;;;;;;2.50;0.90;;;;;;;10.37;100.00;101951.66;4987589;28;20675;-77
2022/04/11 11:15:59;;;;;;;1.57;0.90;;;;;;;10.53;100.00;101953.50;4980321;28;20515;-77
2022/04/11 11:18:25;;;;;;;1.90;0.80;;;;;;;10.52;100.00;101937.56;4981896;28;20431;-77
2022/04/11 11:20:56;;;;;;;9.33;1.10;;;;;;;10.27;100.00;101904.56;4984177;28;20469;-76
2022/04/11 11:23:21;;;;;;;0.80;0.80;;;;;;;10.58;100.00;101944.91;4986060;28;20445;-77